sensor_id;sensor_type;location;lat;lon;timestamp;temperature;humidity
63802;DHT22;49949;43.060;25.624;2023-08-12T00:01:50;16.40;99.90
63802;DHT22;49949;43.060;25.624;2023-08-12T00:04:16;16.30;99.90
63802;DHT22;49949;43.060;25.624;2023-08-12T00:06:42;16.30;99.90
63802;DHT22;49949;43.060;25.624;2023-08-12T00:09:09;16.30;99.90
63802;DHT22;49949;43.060;25.624;2023-08-12T00:11:36;16.30;99.90
63802;DHT22;49949;43.060;25.624;2023-08-12T00:14:02;16.20;99.90
63802;DHT22;49949;43.060;25.624;2023-08-12T00:16:30;16.30;99.90
63802;DHT22;49949;43.060;25.624;2023-08-12T00:18:55;16.20;99.90
63802;DHT22;49949;43.060;25.624;2023-08-12T00:21:21;16.20;99.90
63802;DHT22;49949;43.060;25.624;2023-08-12T00:23:47;16.20;99.90
63802;DHT22;49949;43.060;25.624;2023-08-12T00:26:15;16.20;99.90
63802;DHT22;49949;43.060;25.624;2023-08-12T00:28:41;16.20;99.90
63802;DHT22;49949;43.060;25.624;2023-08-12T00:31:07;16.00;99.90
63802;DHT22;49949;43.060;25.624;2023-08-12T00:33:32;16.10;99.90
63802;DHT22;49949;43.060;25.624;2023-08-12T00:35:58;16.10;99.90
63802;DHT22;49949;43.060;25.624;2023-08-12T00:38:24;16.10;99.90
63802;DHT22;49949;43.060;25.624;2023-08-12T00:40:49;16.00;99.90
63802;DHT22;49949;43.060;25.624;2023-08-12T00:43:15;16.00;99.90
63802;DHT22;49949;43.060;25.624;2023-08-12T00:45:41;16.10;99.90
63802;DHT22;49949;43.060;25.624;2023-08-12T00:48:08;16.10;99.90
63802;DHT22;49949;43.060;25.624;2023-08-12T00:50:36;16.00;99.90
63802;DHT22;49949;43.060;25.624;2023-08-12T00:53:02;16.00;99.90
63802;DHT22;49949;43.060;25.624;2023-08-12T00:55:28;16.10;99.90
63802;DHT22;49949;43.060;25.624;2023-08-12T00:57:54;16.10;99.90
63802;DHT22;49949;43.060;25.624;2023-08-12T01:00:21;16.10;99.90
63802;DHT22;49949;43.060;25.624;2023-08-12T01:02:47;16.00;99.90
63802;DHT22;49949;43.060;25.624;2023-08-12T01:05:14;16.00;99.90
63802;DHT22;49949;43.060;25.624;2023-08-12T01:07:42;16.00;99.90
63802;DHT22;49949;43.060;25.624;2023-08-12T01:10:08;16.00;99.90
63802;DHT22;49949;43.060;25.624;2023-08-12T01:16:03;15.90;99.90
63802;DHT22;49949;43.060;25.624;2023-08-12T01:18:31;15.90;99.90
63802;DHT22;49949;43.060;25.624;2023-08-12T01:20:58;15.90;99.90
63802;DHT22;49949;43.060;25.624;2023-08-12T01:23:24;15.90;99.90
63802;DHT22;49949;43.060;25.624;2023-08-12T01:25:50;16.00;99.90
63802;DHT22;49949;43.060;25.624;2023-08-12T01:28:15;16.00;99.90
63802;DHT22;49949;43.060;25.624;2023-08-12T01:30:57;16.00;99.90
63802;DHT22;49949;43.060;25.624;2023-08-12T01:33:33;16.00;99.90
63802;DHT22;49949;43.060;25.624;2023-08-12T01:36:12;15.90;99.90
63802;DHT22;49949;43.060;25.624;2023-08-12T01:38:41;15.90;99.90
63802;DHT22;49949;43.060;25.624;2023-08-12T01:41:10;15.90;99.90
63802;DHT22;49949;43.060;25.624;2023-08-12T01:43:38;15.80;99.90
63802;DHT22;49949;43.060;25.624;2023-08-12T01:46:03;15.80;99.90
63802;DHT22;49949;43.060;25.624;2023-08-12T01:48:29;15.80;99.90
63802;DHT22;49949;43.060;25.624;2023-08-12T01:50:55;15.80;99.90
63802;DHT22;49949;43.060;25.624;2023-08-12T01:53:20;15.80;99.90
63802;DHT22;49949;43.060;25.624;2023-08-12T01:55:48;15.70;99.90
63802;DHT22;49949;43.060;25.624;2023-08-12T01:58:14;15.60;99.90
63802;DHT22;49949;43.060;25.624;2023-08-12T02:00:40;15.60;99.90
63802;DHT22;49949;43.060;25.624;2023-08-12T02:03:07;15.60;99.90
63802;DHT22;49949;43.060;25.624;2023-08-12T02:05:33;15.60;99.90
63802;DHT22;49949;43.060;25.624;2023-08-12T02:07:59;15.60;99.90
63802;DHT22;49949;43.060;25.624;2023-08-12T02:10:24;15.60;99.90
63802;DHT22;49949;43.060;25.624;2023-08-12T02:12:50;15.50;99.90
63802;DHT22;49949;43.060;25.624;2023-08-12T02:15:16;15.50;99.90
63802;DHT22;49949;43.060;25.624;2023-08-12T02:17:42;15.40;99.90
63802;DHT22;49949;43.060;25.624;2023-08-12T02:20:08;15.40;99.90
63802;DHT22;49949;43.060;25.624;2023-08-12T02:22:33;15.40;99.90
63802;DHT22;49949;43.060;25.624;2023-08-12T02:24:59;15.40;99.90
63802;DHT22;49949;43.060;25.624;2023-08-12T02:27:25;15.40;99.90
63802;DHT22;49949;43.060;25.624;2023-08-12T02:29:51;15.40;99.90
63802;DHT22;49949;43.060;25.624;2023-08-12T02:32:17;15.30;99.90
63802;DHT22;49949;43.060;25.624;2023-08-12T02:34:42;15.30;99.90
63802;DHT22;49949;43.060;25.624;2023-08-12T02:37:08;15.30;99.90
63802;DHT22;49949;43.060;25.624;2023-08-12T02:39:34;15.30;99.90
63802;DHT22;49949;43.060;25.624;2023-08-12T02:41:59;15.30;99.90
63802;DHT22;49949;43.060;25.624;2023-08-12T02:44:25;15.30;99.90
63802;DHT22;49949;43.060;25.624;2023-08-12T02:46:51;15.20;99.90
63802;DHT22;49949;43.060;25.624;2023-08-12T02:49:16;15.20;99.90
63802;DHT22;49949;43.060;25.624;2023-08-12T02:51:42;15.20;99.90
63802;DHT22;49949;43.060;25.624;2023-08-12T02:54:08;15.20;99.90
63802;DHT22;49949;43.060;25.624;2023-08-12T02:56:33;15.10;99.90
63802;DHT22;49949;43.060;25.624;2023-08-12T02:58:59;15.10;99.90
63802;DHT22;49949;43.060;25.624;2023-08-12T03:01:24;15.10;99.90
63802;DHT22;49949;43.060;25.624;2023-08-12T03:03:50;15.10;99.90
63802;DHT22;49949;43.060;25.624;2023-08-12T03:06:16;15.10;99.90
63802;DHT22;49949;43.060;25.624;2023-08-12T03:08:43;15.10;99.90
63802;DHT22;49949;43.060;25.624;2023-08-12T03:11:08;15.10;99.90
63802;DHT22;49949;43.060;25.624;2023-08-12T03:13:34;15.00;99.90
63802;DHT22;49949;43.060;25.624;2023-08-12T03:16:00;15.00;99.90
63802;DHT22;49949;43.060;25.624;2023-08-12T03:18:25;15.00;99.90
63802;DHT22;49949;43.060;25.624;2023-08-12T03:20:51;15.00;99.90
63802;DHT22;49949;43.060;25.624;2023-08-12T03:23:17;15.00;99.90
63802;DHT22;49949;43.060;25.624;2023-08-12T03:25:43;15.00;99.90
63802;DHT22;49949;43.060;25.624;2023-08-12T03:28:08;15.00;99.90
63802;DHT22;49949;43.060;25.624;2023-08-12T03:30:34;15.00;99.90
63802;DHT22;49949;43.060;25.624;2023-08-12T03:33:00;15.00;99.90
63802;DHT22;49949;43.060;25.624;2023-08-12T03:35:26;15.10;99.90
63802;DHT22;49949;43.060;25.624;2023-08-12T03:37:51;15.00;99.90
63802;DHT22;49949;43.060;25.624;2023-08-12T03:40:18;15.00;99.90
63802;DHT22;49949;43.060;25.624;2023-08-12T03:42:44;15.00;99.90
63802;DHT22;49949;43.060;25.624;2023-08-12T03:45:10;15.10;99.90
63802;DHT22;49949;43.060;25.624;2023-08-12T03:47:35;15.00;99.90
63802;DHT22;49949;43.060;25.624;2023-08-12T03:50:01;15.00;99.90
63802;DHT22;49949;43.060;25.624;2023-08-12T03:52:27;15.00;99.90
63802;DHT22;49949;43.060;25.624;2023-08-12T03:54:52;15.30;99.90
63802;DHT22;49949;43.060;25.624;2023-08-12T03:57:18;15.80;99.90
63802;DHT22;49949;43.060;25.624;2023-08-12T03:59:44;16.40;99.90
63802;DHT22;49949;43.060;25.624;2023-08-12T04:02:10;17.00;99.90
63802;DHT22;49949;43.060;25.624;2023-08-12T04:04:36;17.50;99.90
63802;DHT22;49949;43.060;25.624;2023-08-12T04:07:01;17.90;99.90
63802;DHT22;49949;43.060;25.624;2023-08-12T04:09:27;18.40;99.90
63802;DHT22;49949;43.060;25.624;2023-08-12T04:11:53;18.60;99.90
63802;DHT22;49949;43.060;25.624;2023-08-12T04:14:19;18.80;99.90
63802;DHT22;49949;43.060;25.624;2023-08-12T04:16:44;18.90;99.90
63802;DHT22;49949;43.060;25.624;2023-08-12T04:19:10;19.10;99.90
63802;DHT22;49949;43.060;25.624;2023-08-12T04:21:36;19.40;99.90
63802;DHT22;49949;43.060;25.624;2023-08-12T04:24:01;19.70;99.90
63802;DHT22;49949;43.060;25.624;2023-08-12T04:26:27;20.10;99.90
63802;DHT22;49949;43.060;25.624;2023-08-12T04:28:53;20.40;99.90
63802;DHT22;49949;43.060;25.624;2023-08-12T04:31:19;20.60;99.90
63802;DHT22;49949;43.060;25.624;2023-08-12T04:33:45;20.80;99.90
63802;DHT22;49949;43.060;25.624;2023-08-12T04:36:10;21.00;99.90
63802;DHT22;49949;43.060;25.624;2023-08-12T04:38:36;21.20;99.90
63802;DHT22;49949;43.060;25.624;2023-08-12T04:41:02;21.40;99.90
63802;DHT22;49949;43.060;25.624;2023-08-12T04:43:28;21.60;99.90
63802;DHT22;49949;43.060;25.624;2023-08-12T04:45:53;21.70;99.90
63802;DHT22;49949;43.060;25.624;2023-08-12T04:48:21;22.00;99.90
63802;DHT22;49949;43.060;25.624;2023-08-12T04:50:47;22.50;99.90
63802;DHT22;49949;43.060;25.624;2023-08-12T04:53:13;22.80;99.90
63802;DHT22;49949;43.060;25.624;2023-08-12T04:55:38;23.20;99.90
63802;DHT22;49949;43.060;25.624;2023-08-12T04:58:04;23.70;99.90
63802;DHT22;49949;43.060;25.624;2023-08-12T05:00:30;24.10;97.70
63802;DHT22;49949;43.060;25.624;2023-08-12T05:02:55;24.40;97.40
63802;DHT22;49949;43.060;25.624;2023-08-12T05:05:21;24.50;95.80
63802;DHT22;49949;43.060;25.624;2023-08-12T05:07:47;24.60;94.80
63802;DHT22;49949;43.060;25.624;2023-08-12T05:10:16;24.60;94.40
63802;DHT22;49949;43.060;25.624;2023-08-12T05:12:43;24.60;93.90
63802;DHT22;49949;43.060;25.624;2023-08-12T05:15:10;24.40;95.10
63802;DHT22;49949;43.060;25.624;2023-08-12T05:17:36;24.40;95.10
63802;DHT22;49949;43.060;25.624;2023-08-12T05:20:01;24.50;94.80
63802;DHT22;49949;43.060;25.624;2023-08-12T05:22:27;24.60;93.40
63802;DHT22;49949;43.060;25.624;2023-08-12T05:24:53;24.60;93.90
63802;DHT22;49949;43.060;25.624;2023-08-12T05:27:19;24.50;93.00
63802;DHT22;49949;43.060;25.624;2023-08-12T05:29:44;24.50;93.50
63802;DHT22;49949;43.060;25.624;2023-08-12T05:32:10;24.50;92.30
63802;DHT22;49949;43.060;25.624;2023-08-12T05:34:35;24.70;92.50
63802;DHT22;49949;43.060;25.624;2023-08-12T05:37:01;24.90;90.20
63802;DHT22;49949;43.060;25.624;2023-08-12T05:39:27;24.80;91.70
63802;DHT22;49949;43.060;25.624;2023-08-12T05:41:52;24.90;90.90
63802;DHT22;49949;43.060;25.624;2023-08-12T05:44:18;25.00;91.30
63802;DHT22;49949;43.060;25.624;2023-08-12T05:46:44;25.10;90.00
63802;DHT22;49949;43.060;25.624;2023-08-12T05:49:10;25.10;90.20
63802;DHT22;49949;43.060;25.624;2023-08-12T05:51:35;25.20;89.00
63802;DHT22;49949;43.060;25.624;2023-08-12T05:54:01;25.20;88.80
63802;DHT22;49949;43.060;25.624;2023-08-12T05:56:27;25.30;88.50
63802;DHT22;49949;43.060;25.624;2023-08-12T05:58:52;25.30;88.50
63802;DHT22;49949;43.060;25.624;2023-08-12T06:01:19;25.20;88.60
63802;DHT22;49949;43.060;25.624;2023-08-12T06:03:45;25.30;87.80
63802;DHT22;49949;43.060;25.624;2023-08-12T06:06:10;25.40;87.60
63802;DHT22;49949;43.060;25.624;2023-08-12T06:08:36;25.40;86.50
63802;DHT22;49949;43.060;25.624;2023-08-12T06:11:02;25.30;86.00
63802;DHT22;49949;43.060;25.624;2023-08-12T06:13:27;24.80;88.00
63802;DHT22;49949;43.060;25.624;2023-08-12T06:15:56;24.80;88.90
63802;DHT22;49949;43.060;25.624;2023-08-12T06:18:22;24.80;88.50
63802;DHT22;49949;43.060;25.624;2023-08-12T06:20:48;24.80;89.30
63802;DHT22;49949;43.060;25.624;2023-08-12T06:23:16;24.80;88.50
63802;DHT22;49949;43.060;25.624;2023-08-12T06:25:41;24.80;87.40
63802;DHT22;49949;43.060;25.624;2023-08-12T06:28:08;24.80;86.70
63802;DHT22;49949;43.060;25.624;2023-08-12T06:30:35;24.60;87.60
63802;DHT22;49949;43.060;25.624;2023-08-12T06:33:01;24.70;87.90
63802;DHT22;49949;43.060;25.624;2023-08-12T06:35:27;25.00;87.90
63802;DHT22;49949;43.060;25.624;2023-08-12T06:37:53;25.10;85.60
63802;DHT22;49949;43.060;25.624;2023-08-12T06:40:18;25.30;81.30
63802;DHT22;49949;43.060;25.624;2023-08-12T06:42:44;25.20;82.00
63802;DHT22;49949;43.060;25.624;2023-08-12T06:45:10;25.30;82.00
63802;DHT22;49949;43.060;25.624;2023-08-12T06:47:36;25.50;80.00
63802;DHT22;49949;43.060;25.624;2023-08-12T06:50:02;25.40;79.10
63802;DHT22;49949;43.060;25.624;2023-08-12T06:52:28;25.40;79.30
63802;DHT22;49949;43.060;25.624;2023-08-12T06:54:54;25.50;80.40
63802;DHT22;49949;43.060;25.624;2023-08-12T06:57:20;25.60;80.30
63802;DHT22;49949;43.060;25.624;2023-08-12T06:59:45;25.80;79.00
63802;DHT22;49949;43.060;25.624;2023-08-12T07:02:12;26.00;78.60
63802;DHT22;49949;43.060;25.624;2023-08-12T07:04:37;26.00;78.10
63802;DHT22;49949;43.060;25.624;2023-08-12T07:07:03;26.20;78.20
63802;DHT22;49949;43.060;25.624;2023-08-12T07:09:29;26.20;76.20
63802;DHT22;49949;43.060;25.624;2023-08-12T07:11:54;26.30;76.50
63802;DHT22;49949;43.060;25.624;2023-08-12T07:14:20;26.40;75.20
63802;DHT22;49949;43.060;25.624;2023-08-12T07:16:46;26.60;74.30
63802;DHT22;49949;43.060;25.624;2023-08-12T07:19:11;26.70;73.20
63802;DHT22;49949;43.060;25.624;2023-08-12T07:21:37;26.80;73.20
63802;DHT22;49949;43.060;25.624;2023-08-12T07:24:03;27.00;73.40
63802;DHT22;49949;43.060;25.624;2023-08-12T07:26:29;27.10;72.20
63802;DHT22;49949;43.060;25.624;2023-08-12T07:28:56;27.30;71.30
63802;DHT22;49949;43.060;25.624;2023-08-12T07:31:21;27.40;71.30
63802;DHT22;49949;43.060;25.624;2023-08-12T07:33:47;27.40;71.70
63802;DHT22;49949;43.060;25.624;2023-08-12T07:36:13;27.60;70.40
63802;DHT22;49949;43.060;25.624;2023-08-12T07:38:39;27.60;69.70
63802;DHT22;49949;43.060;25.624;2023-08-12T07:41:04;27.70;69.70
63802;DHT22;49949;43.060;25.624;2023-08-12T07:43:33;27.70;69.10
63802;DHT22;49949;43.060;25.624;2023-08-12T07:45:59;27.80;68.80
63802;DHT22;49949;43.060;25.624;2023-08-12T07:48:26;28.00;68.40
63802;DHT22;49949;43.060;25.624;2023-08-12T07:50:58;28.00;67.90
63802;DHT22;49949;43.060;25.624;2023-08-12T07:53:24;28.10;67.30
63802;DHT22;49949;43.060;25.624;2023-08-12T07:55:51;28.00;67.90
63802;DHT22;49949;43.060;25.624;2023-08-12T07:58:16;28.10;67.20
63802;DHT22;49949;43.060;25.624;2023-08-12T08:00:42;28.10;66.80
63802;DHT22;49949;43.060;25.624;2023-08-12T08:03:09;28.10;66.60
63802;DHT22;49949;43.060;25.624;2023-08-12T08:05:35;28.20;66.50
63802;DHT22;49949;43.060;25.624;2023-08-12T08:08:04;28.30;65.40
63802;DHT22;49949;43.060;25.624;2023-08-12T08:10:29;28.40;66.00
63802;DHT22;49949;43.060;25.624;2023-08-12T08:12:55;28.70;65.00
63802;DHT22;49949;43.060;25.624;2023-08-12T08:15:21;28.90;64.10
63802;DHT22;49949;43.060;25.624;2023-08-12T08:17:47;28.90;63.10
63802;DHT22;49949;43.060;25.624;2023-08-12T08:20:13;28.80;64.50
63802;DHT22;49949;43.060;25.624;2023-08-12T08:22:39;28.30;66.00
63802;DHT22;49949;43.060;25.624;2023-08-12T08:25:05;28.00;67.40
63802;DHT22;49949;43.060;25.624;2023-08-12T08:27:31;27.90;68.10
63802;DHT22;49949;43.060;25.624;2023-08-12T08:29:57;28.10;67.60
63802;DHT22;49949;43.060;25.624;2023-08-12T08:32:23;28.30;67.20
63802;DHT22;49949;43.060;25.624;2023-08-12T08:34:49;28.40;66.40
63802;DHT22;49949;43.060;25.624;2023-08-12T08:37:14;28.60;65.40
63802;DHT22;49949;43.060;25.624;2023-08-12T08:39:40;28.80;65.90
63802;DHT22;49949;43.060;25.624;2023-08-12T08:42:06;28.30;66.40
63802;DHT22;49949;43.060;25.624;2023-08-12T08:44:33;27.70;67.90
63802;DHT22;49949;43.060;25.624;2023-08-12T08:46:59;27.70;68.60
63802;DHT22;49949;43.060;25.624;2023-08-12T08:49:26;27.30;68.60
63802;DHT22;49949;43.060;25.624;2023-08-12T08:51:52;27.30;69.30
63802;DHT22;49949;43.060;25.624;2023-08-12T08:54:19;27.70;67.60
63802;DHT22;49949;43.060;25.624;2023-08-12T08:56:45;27.90;67.20
63802;DHT22;49949;43.060;25.624;2023-08-12T08:59:11;28.00;66.10
63802;DHT22;49949;43.060;25.624;2023-08-12T09:01:38;28.30;65.70
63802;DHT22;49949;43.060;25.624;2023-08-12T09:04:05;28.50;65.50
63802;DHT22;49949;43.060;25.624;2023-08-12T09:06:32;29.00;64.10
63802;DHT22;49949;43.060;25.624;2023-08-12T09:09:01;29.40;63.00
63802;DHT22;49949;43.060;25.624;2023-08-12T09:11:27;29.40;61.10
63802;DHT22;49949;43.060;25.624;2023-08-12T09:13:53;29.30;61.60
63802;DHT22;49949;43.060;25.624;2023-08-12T09:16:19;29.50;61.40
63802;DHT22;49949;43.060;25.624;2023-08-12T09:18:45;29.60;59.80
63802;DHT22;49949;43.060;25.624;2023-08-12T09:21:11;29.60;61.40
63802;DHT22;49949;43.060;25.624;2023-08-12T09:23:41;29.90;60.00
63802;DHT22;49949;43.060;25.624;2023-08-12T09:26:15;30.20;59.80
63802;DHT22;49949;43.060;25.624;2023-08-12T09:28:42;30.50;58.90
63802;DHT22;49949;43.060;25.624;2023-08-12T09:31:08;30.80;58.10
63802;DHT22;49949;43.060;25.624;2023-08-12T09:33:39;31.00;57.60
63802;DHT22;49949;43.060;25.624;2023-08-12T09:36:04;31.20;57.10
63802;DHT22;49949;43.060;25.624;2023-08-12T09:38:31;31.30;56.30
63802;DHT22;49949;43.060;25.624;2023-08-12T09:40:56;31.30;56.80
63802;DHT22;49949;43.060;25.624;2023-08-12T09:43:28;31.10;57.50
63802;DHT22;49949;43.060;25.624;2023-08-12T09:45:55;30.70;56.50
63802;DHT22;49949;43.060;25.624;2023-08-12T09:48:21;29.90;58.90
63802;DHT22;49949;43.060;25.624;2023-08-12T09:50:47;29.90;59.90
63802;DHT22;49949;43.060;25.624;2023-08-12T09:53:13;29.90;57.80
63802;DHT22;49949;43.060;25.624;2023-08-12T09:55:39;30.00;59.30
63802;DHT22;49949;43.060;25.624;2023-08-12T09:58:06;30.30;58.60
63802;DHT22;49949;43.060;25.624;2023-08-12T10:00:33;30.70;57.80
63802;DHT22;49949;43.060;25.624;2023-08-12T10:03:01;31.00;57.70
63802;DHT22;49949;43.060;25.624;2023-08-12T10:05:28;31.30;57.00
63802;DHT22;49949;43.060;25.624;2023-08-12T10:07:56;31.40;56.30
63802;DHT22;49949;43.060;25.624;2023-08-12T10:10:22;31.50;55.50
63802;DHT22;49949;43.060;25.624;2023-08-12T10:12:51;31.10;55.60
63802;DHT22;49949;43.060;25.624;2023-08-12T10:15:17;30.50;56.30
63802;DHT22;49949;43.060;25.624;2023-08-12T10:17:43;30.20;58.80
63802;DHT22;49949;43.060;25.624;2023-08-12T10:20:13;30.20;58.10
63802;DHT22;49949;43.060;25.624;2023-08-12T10:22:40;30.40;57.90
63802;DHT22;49949;43.060;25.624;2023-08-12T10:25:08;30.50;57.50
63802;DHT22;49949;43.060;25.624;2023-08-12T10:27:34;30.80;56.60
63802;DHT22;49949;43.060;25.624;2023-08-12T10:30:06;30.90;55.10
63802;DHT22;49949;43.060;25.624;2023-08-12T10:32:33;30.80;57.10
63802;DHT22;49949;43.060;25.624;2023-08-12T10:34:59;30.90;56.10
63802;DHT22;49949;43.060;25.624;2023-08-12T10:37:25;31.00;56.40
63802;DHT22;49949;43.060;25.624;2023-08-12T10:39:52;31.00;55.90
63802;DHT22;49949;43.060;25.624;2023-08-12T10:42:45;30.90;56.70
63802;DHT22;49949;43.060;25.624;2023-08-12T10:45:12;30.90;55.40
63802;DHT22;49949;43.060;25.624;2023-08-12T10:47:43;30.80;56.40
63802;DHT22;49949;43.060;25.624;2023-08-12T10:52:44;30.30;58.70
63802;DHT22;49949;43.060;25.624;2023-08-12T10:57:47;29.40;60.10
63802;DHT22;49949;43.060;25.624;2023-08-12T11:00:26;29.50;60.60
63802;DHT22;49949;43.060;25.624;2023-08-12T11:02:53;29.50;59.90
63802;DHT22;49949;43.060;25.624;2023-08-12T11:05:20;29.20;60.40
63802;DHT22;49949;43.060;25.624;2023-08-12T11:07:59;28.90;60.30
63802;DHT22;49949;43.060;25.624;2023-08-12T11:10:32;29.00;60.90
63802;DHT22;49949;43.060;25.624;2023-08-12T11:12:59;29.30;60.90
63802;DHT22;49949;43.060;25.624;2023-08-12T11:15:35;29.60;58.90
63802;DHT22;49949;43.060;25.624;2023-08-12T11:18:07;29.90;58.80
63802;DHT22;49949;43.060;25.624;2023-08-12T11:20:34;30.10;59.20
63802;DHT22;49949;43.060;25.624;2023-08-12T11:23:00;30.20;58.70
63802;DHT22;49949;43.060;25.624;2023-08-12T11:25:28;30.50;58.40
63802;DHT22;49949;43.060;25.624;2023-08-12T11:27:55;30.60;57.50
63802;DHT22;49949;43.060;25.624;2023-08-12T11:30:21;30.80;58.60
63802;DHT22;49949;43.060;25.624;2023-08-12T11:32:49;30.60;57.10
63802;DHT22;49949;43.060;25.624;2023-08-12T11:35:17;30.20;58.50
63802;DHT22;49949;43.060;25.624;2023-08-12T11:37:46;30.00;59.30
63802;DHT22;49949;43.060;25.624;2023-08-12T11:40:14;30.00;59.60
63802;DHT22;49949;43.060;25.624;2023-08-12T11:42:41;30.30;58.60
63802;DHT22;49949;43.060;25.624;2023-08-12T11:45:08;30.60;58.10
63802;DHT22;49949;43.060;25.624;2023-08-12T11:47:34;30.70;58.10
63802;DHT22;49949;43.060;25.624;2023-08-12T11:50:04;30.70;57.80
63802;DHT22;49949;43.060;25.624;2023-08-12T11:52:30;30.70;59.00
63802;DHT22;49949;43.060;25.624;2023-08-12T11:54:56;30.30;58.60
63802;DHT22;49949;43.060;25.624;2023-08-12T11:57:23;30.00;59.40
63802;DHT22;49949;43.060;25.624;2023-08-12T11:59:50;29.50;60.40
63802;DHT22;49949;43.060;25.624;2023-08-12T12:02:17;29.30;61.30
63802;DHT22;49949;43.060;25.624;2023-08-12T12:04:43;29.30;60.40
63802;DHT22;49949;43.060;25.624;2023-08-12T12:07:38;29.40;59.80
63802;DHT22;49949;43.060;25.624;2023-08-12T12:10:05;29.20;61.20
63802;DHT22;49949;43.060;25.624;2023-08-12T12:12:33;29.50;60.80
63802;DHT22;49949;43.060;25.624;2023-08-12T12:15:00;29.50;59.70
63802;DHT22;49949;43.060;25.624;2023-08-12T12:17:26;29.70;58.90
63802;DHT22;49949;43.060;25.624;2023-08-12T12:19:55;29.70;58.10
63802;DHT22;49949;43.060;25.624;2023-08-12T12:22:32;29.60;58.10
63802;DHT22;49949;43.060;25.624;2023-08-12T12:25:08;29.50;57.80
63802;DHT22;49949;43.060;25.624;2023-08-12T12:27:35;29.60;59.30
63802;DHT22;49949;43.060;25.624;2023-08-12T12:30:01;29.70;57.70
63802;DHT22;49949;43.060;25.624;2023-08-12T12:32:27;29.80;57.00
63802;DHT22;49949;43.060;25.624;2023-08-12T12:34:53;29.80;57.10
63802;DHT22;49949;43.060;25.624;2023-08-12T12:37:20;29.70;57.60
63802;DHT22;49949;43.060;25.624;2023-08-12T12:39:46;29.80;57.00
63802;DHT22;49949;43.060;25.624;2023-08-12T12:42:12;29.70;58.30
63802;DHT22;49949;43.060;25.624;2023-08-12T12:44:38;29.80;59.00
63802;DHT22;49949;43.060;25.624;2023-08-12T12:47:05;30.20;57.80
63802;DHT22;49949;43.060;25.624;2023-08-12T12:49:31;30.40;57.00
63802;DHT22;49949;43.060;25.624;2023-08-12T12:51:56;30.70;56.50
63802;DHT22;49949;43.060;25.624;2023-08-12T12:54:22;30.90;56.00
63802;DHT22;49949;43.060;25.624;2023-08-12T12:56:48;31.00;55.80
63802;DHT22;49949;43.060;25.624;2023-08-12T12:59:14;31.00;56.30
63802;DHT22;49949;43.060;25.624;2023-08-12T13:01:43;31.00;55.60
63802;DHT22;49949;43.060;25.624;2023-08-12T13:04:09;31.10;55.60
63802;DHT22;49949;43.060;25.624;2023-08-12T13:06:35;31.20;54.50
63802;DHT22;49949;43.060;25.624;2023-08-12T13:09:00;31.30;54.30
63802;DHT22;49949;43.060;25.624;2023-08-12T13:11:27;31.20;54.00
63802;DHT22;49949;43.060;25.624;2023-08-12T13:13:53;31.20;54.40
63802;DHT22;49949;43.060;25.624;2023-08-12T13:16:19;31.40;54.20
63802;DHT22;49949;43.060;25.624;2023-08-12T13:18:45;31.50;55.10
63802;DHT22;49949;43.060;25.624;2023-08-12T13:21:11;31.50;54.10
63802;DHT22;49949;43.060;25.624;2023-08-12T13:23:37;31.30;53.90
63802;DHT22;49949;43.060;25.624;2023-08-12T13:26:02;31.10;54.60
63802;DHT22;49949;43.060;25.624;2023-08-12T13:28:28;30.90;55.10
63802;DHT22;49949;43.060;25.624;2023-08-12T13:30:55;30.80;56.10
63802;DHT22;49949;43.060;25.624;2023-08-12T13:33:21;30.80;56.50
63802;DHT22;49949;43.060;25.624;2023-08-12T13:35:46;30.90;55.50
63802;DHT22;49949;43.060;25.624;2023-08-12T13:38:12;31.00;56.00
63802;DHT22;49949;43.060;25.624;2023-08-12T13:40:38;31.20;55.30
63802;DHT22;49949;43.060;25.624;2023-08-12T13:43:03;31.40;55.00
63802;DHT22;49949;43.060;25.624;2023-08-12T13:45:29;31.50;54.20
63802;DHT22;49949;43.060;25.624;2023-08-12T13:47:55;31.70;54.30
63802;DHT22;49949;43.060;25.624;2023-08-12T13:50:21;31.70;53.40
63802;DHT22;49949;43.060;25.624;2023-08-12T13:52:47;31.70;53.80
63802;DHT22;49949;43.060;25.624;2023-08-12T13:55:13;31.90;53.20
63802;DHT22;49949;43.060;25.624;2023-08-12T13:57:38;31.90;52.60
63802;DHT22;49949;43.060;25.624;2023-08-12T14:00:05;32.00;52.90
63802;DHT22;49949;43.060;25.624;2023-08-12T14:02:38;32.20;53.50
63802;DHT22;49949;43.060;25.624;2023-08-12T14:05:04;32.30;52.60
63802;DHT22;49949;43.060;25.624;2023-08-12T14:07:30;32.20;52.90
63802;DHT22;49949;43.060;25.624;2023-08-12T14:09:57;32.00;53.20
63802;DHT22;49949;43.060;25.624;2023-08-12T14:12:23;32.00;54.20
63802;DHT22;49949;43.060;25.624;2023-08-12T14:14:49;32.00;53.50
63802;DHT22;49949;43.060;25.624;2023-08-12T14:17:14;32.10;53.10
63802;DHT22;49949;43.060;25.624;2023-08-12T14:19:44;32.10;52.20
63802;DHT22;49949;43.060;25.624;2023-08-12T14:22:09;32.10;53.00
63802;DHT22;49949;43.060;25.624;2023-08-12T14:24:35;32.30;53.00
63802;DHT22;49949;43.060;25.624;2023-08-12T14:27:01;32.20;52.80
63802;DHT22;49949;43.060;25.624;2023-08-12T14:29:26;32.30;54.90
63802;DHT22;49949;43.060;25.624;2023-08-12T14:31:52;32.50;53.40
63802;DHT22;49949;43.060;25.624;2023-08-12T14:34:18;32.60;52.70
63802;DHT22;49949;43.060;25.624;2023-08-12T14:36:44;32.80;51.80
63802;DHT22;49949;43.060;25.624;2023-08-12T14:39:09;32.50;52.20
63802;DHT22;49949;43.060;25.624;2023-08-12T14:41:35;32.20;54.00
63802;DHT22;49949;43.060;25.624;2023-08-12T14:44:00;31.40;56.30
63802;DHT22;49949;43.060;25.624;2023-08-12T14:46:26;31.00;57.60
63802;DHT22;49949;43.060;25.624;2023-08-12T14:48:52;30.70;58.60
63802;DHT22;49949;43.060;25.624;2023-08-12T14:51:19;30.40;59.10
63802;DHT22;49949;43.060;25.624;2023-08-12T14:53:45;30.10;60.10
63802;DHT22;49949;43.060;25.624;2023-08-12T14:56:12;29.90;59.80
63802;DHT22;49949;43.060;25.624;2023-08-12T14:58:38;29.60;60.90
63802;DHT22;49949;43.060;25.624;2023-08-12T15:01:04;29.60;61.60
63802;DHT22;49949;43.060;25.624;2023-08-12T15:03:30;29.50;61.90
63802;DHT22;49949;43.060;25.624;2023-08-12T15:06:02;29.40;62.50
63802;DHT22;49949;43.060;25.624;2023-08-12T15:08:30;29.20;62.80
63802;DHT22;49949;43.060;25.624;2023-08-12T15:10:56;29.10;63.50
63802;DHT22;49949;43.060;25.624;2023-08-12T15:13:22;29.00;64.00
63802;DHT22;49949;43.060;25.624;2023-08-12T15:15:49;29.00;64.80
63802;DHT22;49949;43.060;25.624;2023-08-12T15:18:16;28.90;63.70
63802;DHT22;49949;43.060;25.624;2023-08-12T15:20:44;28.80;64.10